sensor_id;sensor_type;location;lat;lon;timestamp;temperature;humidity
23597;DHT22;40226;50.874;4.394;2022-12-18T00:01:29;-1.80;99.90
23597;DHT22;40226;50.874;4.394;2022-12-18T00:03:57;-1.90;99.90
23597;DHT22;40226;50.874;4.394;2022-12-18T00:06:24;-2.00;99.90
23597;DHT22;40226;50.874;4.394;2022-12-18T00:08:50;-2.10;99.90
23597;DHT22;40226;50.874;4.394;2022-12-18T00:11:21;-2.20;99.90
23597;DHT22;40226;50.874;4.394;2022-12-18T00:13:48;-2.40;99.90
23597;DHT22;40226;50.874;4.394;2022-12-18T00:16:17;-2.40;99.90
23597;DHT22;40226;50.874;4.394;2022-12-18T00:18:47;-2.30;99.90
23597;DHT22;40226;50.874;4.394;2022-12-18T00:21:13;-2.40;99.90
23597;DHT22;40226;50.874;4.394;2022-12-18T00:23:40;-2.40;99.90
23597;DHT22;40226;50.874;4.394;2022-12-18T00:26:10;-2.20;99.90
23597;DHT22;40226;50.874;4.394;2022-12-18T00:28:36;-2.20;99.90
23597;DHT22;40226;50.874;4.394;2022-12-18T00:31:07;-2.30;99.90
23597;DHT22;40226;50.874;4.394;2022-12-18T00:33:33;-2.10;99.90
23597;DHT22;40226;50.874;4.394;2022-12-18T00:36:16;-2.00;99.90
23597;DHT22;40226;50.874;4.394;2022-12-18T00:38:43;-1.90;99.90
23597;DHT22;40226;50.874;4.394;2022-12-18T00:41:11;-2.00;99.90
23597;DHT22;40226;50.874;4.394;2022-12-18T00:43:38;-2.20;99.90
23597;DHT22;40226;50.874;4.394;2022-12-18T00:46:04;-2.10;99.90
23597;DHT22;40226;50.874;4.394;2022-12-18T00:48:30;-2.10;99.90
23597;DHT22;40226;50.874;4.394;2022-12-18T00:50:56;-2.20;99.90
23597;DHT22;40226;50.874;4.394;2022-12-18T00:53:22;-2.50;99.90
23597;DHT22;40226;50.874;4.394;2022-12-18T00:55:47;-2.50;99.90
23597;DHT22;40226;50.874;4.394;2022-12-18T00:58:14;-2.60;99.90
23597;DHT22;40226;50.874;4.394;2022-12-18T01:00:41;-2.60;99.90
23597;DHT22;40226;50.874;4.394;2022-12-18T01:03:06;-2.60;99.90
23597;DHT22;40226;50.874;4.394;2022-12-18T01:05:32;-2.60;99.90
23597;DHT22;40226;50.874;4.394;2022-12-18T01:07:58;-2.30;99.90
23597;DHT22;40226;50.874;4.394;2022-12-18T01:10:24;-2.20;99.90
23597;DHT22;40226;50.874;4.394;2022-12-18T01:12:51;-2.10;99.90
23597;DHT22;40226;50.874;4.394;2022-12-18T01:15:17;-2.20;99.90
23597;DHT22;40226;50.874;4.394;2022-12-18T01:17:43;-2.40;99.90
23597;DHT22;40226;50.874;4.394;2022-12-18T01:20:10;-2.60;99.90
23597;DHT22;40226;50.874;4.394;2022-12-18T01:22:36;-2.50;99.90
23597;DHT22;40226;50.874;4.394;2022-12-18T01:25:03;-2.40;99.90
23597;DHT22;40226;50.874;4.394;2022-12-18T01:27:29;-2.60;99.90
23597;DHT22;40226;50.874;4.394;2022-12-18T01:29:56;-2.70;99.90
23597;DHT22;40226;50.874;4.394;2022-12-18T01:32:23;-2.80;99.90
23597;DHT22;40226;50.874;4.394;2022-12-18T01:34:49;-2.70;99.90
23597;DHT22;40226;50.874;4.394;2022-12-18T01:37:15;-2.70;99.90
23597;DHT22;40226;50.874;4.394;2022-12-18T01:39:40;-2.80;99.90
23597;DHT22;40226;50.874;4.394;2022-12-18T01:42:12;-2.50;99.90
23597;DHT22;40226;50.874;4.394;2022-12-18T01:45:01;-2.70;99.90
23597;DHT22;40226;50.874;4.394;2022-12-18T01:47:35;-3.00;99.90
23597;DHT22;40226;50.874;4.394;2022-12-18T01:50:52;-3.10;99.90
23597;DHT22;40226;50.874;4.394;2022-12-18T01:53:11;-3.10;99.90
23597;DHT22;40226;50.874;4.394;2022-12-18T01:55:58;-3.30;99.90
23597;DHT22;40226;50.874;4.394;2022-12-18T01:58:32;-3.10;99.90
23597;DHT22;40226;50.874;4.394;2022-12-18T02:01:01;-3.20;99.90
23597;DHT22;40226;50.874;4.394;2022-12-18T02:03:27;-3.30;99.90
23597;DHT22;40226;50.874;4.394;2022-12-18T02:16:50;-2.90;99.90
23597;DHT22;40226;50.874;4.394;2022-12-18T02:25:00;-2.90;99.90
23597;DHT22;40226;50.874;4.394;2022-12-18T02:27:24;-2.80;99.90
23597;DHT22;40226;50.874;4.394;2022-12-18T02:29:55;-2.80;99.90
23597;DHT22;40226;50.874;4.394;2022-12-18T02:32:27;-2.70;99.90
23597;DHT22;40226;50.874;4.394;2022-12-18T02:34:55;-2.90;99.90
23597;DHT22;40226;50.874;4.394;2022-12-18T02:37:23;-2.90;99.90
23597;DHT22;40226;50.874;4.394;2022-12-18T02:39:52;-2.90;99.90
23597;DHT22;40226;50.874;4.394;2022-12-18T02:42:18;-2.80;99.90
23597;DHT22;40226;50.874;4.394;2022-12-18T02:44:46;-2.90;99.90
23597;DHT22;40226;50.874;4.394;2022-12-18T02:47:13;-3.00;99.90
23597;DHT22;40226;50.874;4.394;2022-12-18T03:04:01;-2.80;99.90
23597;DHT22;40226;50.874;4.394;2022-12-18T03:06:41;-2.70;99.90
23597;DHT22;40226;50.874;4.394;2022-12-18T03:09:12;-3.00;99.90
23597;DHT22;40226;50.874;4.394;2022-12-18T03:11:42;-3.00;99.90
23597;DHT22;40226;50.874;4.394;2022-12-18T03:14:30;-2.70;99.90
23597;DHT22;40226;50.874;4.394;2022-12-18T03:17:02;-2.70;99.90
23597;DHT22;40226;50.874;4.394;2022-12-18T03:19:31;-2.80;99.90
23597;DHT22;40226;50.874;4.394;2022-12-18T03:22:00;-2.80;99.90
23597;DHT22;40226;50.874;4.394;2022-12-18T03:24:30;-2.80;99.90
23597;DHT22;40226;50.874;4.394;2022-12-18T03:27:06;-2.90;99.90
23597;DHT22;40226;50.874;4.394;2022-12-18T03:29:38;-2.70;99.90
23597;DHT22;40226;50.874;4.394;2022-12-18T03:32:32;-2.80;99.90
23597;DHT22;40226;50.874;4.394;2022-12-18T03:35:02;-3.00;99.90
23597;DHT22;40226;50.874;4.394;2022-12-18T03:37:30;-3.00;99.90
23597;DHT22;40226;50.874;4.394;2022-12-18T03:39:56;-2.90;99.90
23597;DHT22;40226;50.874;4.394;2022-12-18T03:45:13;-3.10;99.90
23597;DHT22;40226;50.874;4.394;2022-12-18T03:53:29;-2.90;99.90
23597;DHT22;40226;50.874;4.394;2022-12-18T03:55:57;-3.00;99.90
23597;DHT22;40226;50.874;4.394;2022-12-18T03:58:27;-2.90;99.90
23597;DHT22;40226;50.874;4.394;2022-12-18T04:00:56;-2.90;99.90
23597;DHT22;40226;50.874;4.394;2022-12-18T04:03:25;-2.80;99.90
23597;DHT22;40226;50.874;4.394;2022-12-18T04:05:53;-2.90;99.90
23597;DHT22;40226;50.874;4.394;2022-12-18T04:08:20;-3.10;99.90
23597;DHT22;40226;50.874;4.394;2022-12-18T04:10:47;-3.10;99.90
23597;DHT22;40226;50.874;4.394;2022-12-18T04:13:22;-3.20;99.90
23597;DHT22;40226;50.874;4.394;2022-12-18T04:15:47;-3.30;99.90
23597;DHT22;40226;50.874;4.394;2022-12-18T04:18:13;-3.20;99.90
23597;DHT22;40226;50.874;4.394;2022-12-18T04:20:39;-3.10;99.90
23597;DHT22;40226;50.874;4.394;2022-12-18T04:23:04;-3.00;99.90
23597;DHT22;40226;50.874;4.394;2022-12-18T04:25:30;-3.00;99.90
23597;DHT22;40226;50.874;4.394;2022-12-18T04:27:55;-3.20;99.90
23597;DHT22;40226;50.874;4.394;2022-12-18T04:30:21;-3.20;99.90
23597;DHT22;40226;50.874;4.394;2022-12-18T04:32:46;-3.10;99.90
23597;DHT22;40226;50.874;4.394;2022-12-18T04:35:12;-3.20;99.90
23597;DHT22;40226;50.874;4.394;2022-12-18T04:37:37;-3.20;99.90
23597;DHT22;40226;50.874;4.394;2022-12-18T04:40:03;-2.90;99.90
23597;DHT22;40226;50.874;4.394;2022-12-18T04:42:29;-2.80;99.90
23597;DHT22;40226;50.874;4.394;2022-12-18T04:44:55;-2.90;99.90
23597;DHT22;40226;50.874;4.394;2022-12-18T04:47:20;-2.90;99.90
23597;DHT22;40226;50.874;4.394;2022-12-18T04:49:46;-3.00;99.90
23597;DHT22;40226;50.874;4.394;2022-12-18T04:52:11;-3.00;99.90
23597;DHT22;40226;50.874;4.394;2022-12-18T04:54:37;-3.20;99.90
23597;DHT22;40226;50.874;4.394;2022-12-18T04:57:03;-3.30;99.90
23597;DHT22;40226;50.874;4.394;2022-12-18T04:59:28;-3.40;99.90
23597;DHT22;40226;50.874;4.394;2022-12-18T05:01:54;-3.10;99.90
23597;DHT22;40226;50.874;4.394;2022-12-18T05:04:19;-3.30;99.90
23597;DHT22;40226;50.874;4.394;2022-12-18T05:06:45;-3.00;99.90
23597;DHT22;40226;50.874;4.394;2022-12-18T05:09:10;-3.00;99.90
23597;DHT22;40226;50.874;4.394;2022-12-18T05:11:36;-2.80;99.90
23597;DHT22;40226;50.874;4.394;2022-12-18T05:14:02;-3.00;99.90
23597;DHT22;40226;50.874;4.394;2022-12-18T05:16:27;-3.10;99.90
23597;DHT22;40226;50.874;4.394;2022-12-18T05:18:53;-3.30;99.90
23597;DHT22;40226;50.874;4.394;2022-12-18T05:21:19;-3.20;99.90
23597;DHT22;40226;50.874;4.394;2022-12-18T05:23:44;-3.10;99.90
23597;DHT22;40226;50.874;4.394;2022-12-18T05:26:15;-3.10;99.90
23597;DHT22;40226;50.874;4.394;2022-12-18T05:28:43;-3.10;99.90
23597;DHT22;40226;50.874;4.394;2022-12-18T05:31:09;-3.20;99.90
23597;DHT22;40226;50.874;4.394;2022-12-18T05:33:35;-3.00;99.90
23597;DHT22;40226;50.874;4.394;2022-12-18T05:36:04;-2.90;99.90
23597;DHT22;40226;50.874;4.394;2022-12-18T05:38:31;-2.90;99.90
23597;DHT22;40226;50.874;4.394;2022-12-18T05:40:57;-2.90;99.90
23597;DHT22;40226;50.874;4.394;2022-12-18T05:43:24;-2.90;99.90
23597;DHT22;40226;50.874;4.394;2022-12-18T05:45:50;-3.00;99.90
23597;DHT22;40226;50.874;4.394;2022-12-18T05:48:16;-3.10;99.90
23597;DHT22;40226;50.874;4.394;2022-12-18T05:50:43;-3.10;99.90
23597;DHT22;40226;50.874;4.394;2022-12-18T05:53:11;-2.90;99.90
23597;DHT22;40226;50.874;4.394;2022-12-18T05:55:38;-3.10;99.90
23597;DHT22;40226;50.874;4.394;2022-12-18T05:58:05;-3.30;99.90
23597;DHT22;40226;50.874;4.394;2022-12-18T06:00:35;-3.30;99.90
23597;DHT22;40226;50.874;4.394;2022-12-18T06:03:01;-3.10;99.90
23597;DHT22;40226;50.874;4.394;2022-12-18T06:05:27;-2.90;99.90
23597;DHT22;40226;50.874;4.394;2022-12-18T06:07:53;-2.80;99.90
23597;DHT22;40226;50.874;4.394;2022-12-18T06:10:19;-3.00;99.90
23597;DHT22;40226;50.874;4.394;2022-12-18T06:12:45;-2.90;99.90
23597;DHT22;40226;50.874;4.394;2022-12-18T06:15:10;-2.80;99.90
23597;DHT22;40226;50.874;4.394;2022-12-18T06:17:36;-3.00;99.90
23597;DHT22;40226;50.874;4.394;2022-12-18T06:20:03;-3.30;99.90
23597;DHT22;40226;50.874;4.394;2022-12-18T06:22:31;-3.40;99.90
23597;DHT22;40226;50.874;4.394;2022-12-18T06:24:57;-3.40;99.90
23597;DHT22;40226;50.874;4.394;2022-12-18T06:27:23;-3.30;99.90
23597;DHT22;40226;50.874;4.394;2022-12-18T06:29:49;-3.10;99.90
23597;DHT22;40226;50.874;4.394;2022-12-18T06:32:14;-3.10;99.90
23597;DHT22;40226;50.874;4.394;2022-12-18T06:34:40;-3.10;99.90
23597;DHT22;40226;50.874;4.394;2022-12-18T06:37:06;-3.00;99.90
23597;DHT22;40226;50.874;4.394;2022-12-18T06:39:34;-2.90;99.90
23597;DHT22;40226;50.874;4.394;2022-12-18T06:41:59;-3.20;99.90
23597;DHT22;40226;50.874;4.394;2022-12-18T06:44:25;-3.40;99.90
23597;DHT22;40226;50.874;4.394;2022-12-18T06:46:51;-3.20;99.90
23597;DHT22;40226;50.874;4.394;2022-12-18T06:49:16;-2.90;99.90
23597;DHT22;40226;50.874;4.394;2022-12-18T06:51:42;-2.90;99.90
23597;DHT22;40226;50.874;4.394;2022-12-18T06:54:08;-3.10;99.90
23597;DHT22;40226;50.874;4.394;2022-12-18T06:56:33;-3.20;99.90
23597;DHT22;40226;50.874;4.394;2022-12-18T06:58:59;-3.20;99.90
23597;DHT22;40226;50.874;4.394;2022-12-18T07:01:26;-3.20;99.90
23597;DHT22;40226;50.874;4.394;2022-12-18T07:03:53;-3.40;99.90
23597;DHT22;40226;50.874;4.394;2022-12-18T07:06:22;-3.40;99.90
23597;DHT22;40226;50.874;4.394;2022-12-18T07:08:48;-3.30;99.90
23597;DHT22;40226;50.874;4.394;2022-12-18T07:11:15;-3.20;99.90
23597;DHT22;40226;50.874;4.394;2022-12-18T07:13:41;-3.30;99.90
23597;DHT22;40226;50.874;4.394;2022-12-18T07:16:18;-3.50;99.90
23597;DHT22;40226;50.874;4.394;2022-12-18T07:18:44;-3.60;99.90
23597;DHT22;40226;50.874;4.394;2022-12-18T07:21:15;-3.50;99.90
23597;DHT22;40226;50.874;4.394;2022-12-18T07:23:40;-3.60;99.90
23597;DHT22;40226;50.874;4.394;2022-12-18T07:26:09;-3.70;99.90
23597;DHT22;40226;50.874;4.394;2022-12-18T07:28:38;-3.60;99.90
23597;DHT22;40226;50.874;4.394;2022-12-18T07:31:09;-3.40;99.90
23597;DHT22;40226;50.874;4.394;2022-12-18T07:33:36;-3.50;99.90
23597;DHT22;40226;50.874;4.394;2022-12-18T07:36:03;-3.60;99.90
23597;DHT22;40226;50.874;4.394;2022-12-18T07:38:29;-3.50;99.90
23597;DHT22;40226;50.874;4.394;2022-12-18T07:41:03;-3.30;99.90
23597;DHT22;40226;50.874;4.394;2022-12-18T07:43:29;-3.20;99.90
23597;DHT22;40226;50.874;4.394;2022-12-18T07:45:55;-3.20;99.90
23597;DHT22;40226;50.874;4.394;2022-12-18T07:48:20;-3.30;99.90
23597;DHT22;40226;50.874;4.394;2022-12-18T07:50:46;-3.10;99.90
23597;DHT22;40226;50.874;4.394;2022-12-18T07:53:12;-3.20;99.90
23597;DHT22;40226;50.874;4.394;2022-12-18T07:55:37;-2.90;99.90
23597;DHT22;40226;50.874;4.394;2022-12-18T07:58:03;-3.00;99.90
23597;DHT22;40226;50.874;4.394;2022-12-18T08:00:30;-2.80;99.90
23597;DHT22;40226;50.874;4.394;2022-12-18T08:02:56;-2.90;99.90
23597;DHT22;40226;50.874;4.394;2022-12-18T08:05:21;-2.80;99.90
23597;DHT22;40226;50.874;4.394;2022-12-18T08:07:47;-2.70;99.90
23597;DHT22;40226;50.874;4.394;2022-12-18T08:10:13;-2.70;99.90
23597;DHT22;40226;50.874;4.394;2022-12-18T08:12:38;-2.70;99.90
23597;DHT22;40226;50.874;4.394;2022-12-18T08:15:05;-2.60;99.90
23597;DHT22;40226;50.874;4.394;2022-12-18T08:17:30;-2.60;99.90
23597;DHT22;40226;50.874;4.394;2022-12-18T08:19:56;-2.60;99.90
23597;DHT22;40226;50.874;4.394;2022-12-18T08:22:22;-2.70;99.90
23597;DHT22;40226;50.874;4.394;2022-12-18T08:24:47;-2.60;99.90
23597;DHT22;40226;50.874;4.394;2022-12-18T08:27:13;-2.60;99.90
23597;DHT22;40226;50.874;4.394;2022-12-18T08:29:38;-2.50;99.90
23597;DHT22;40226;50.874;4.394;2022-12-18T08:32:04;-2.30;99.90
23597;DHT22;40226;50.874;4.394;2022-12-18T08:34:30;-2.20;99.90
23597;DHT22;40226;50.874;4.394;2022-12-18T08:36:55;-2.10;99.90
23597;DHT22;40226;50.874;4.394;2022-12-18T08:39:21;-1.90;99.90
23597;DHT22;40226;50.874;4.394;2022-12-18T08:41:47;-2.00;99.90
23597;DHT22;40226;50.874;4.394;2022-12-18T08:44:32;-1.90;99.90
23597;DHT22;40226;50.874;4.394;2022-12-18T08:47:04;-1.90;99.90
23597;DHT22;40226;50.874;4.394;2022-12-18T08:49:30;-1.90;99.90
23597;DHT22;40226;50.874;4.394;2022-12-18T08:51:56;-2.00;99.90
23597;DHT22;40226;50.874;4.394;2022-12-18T08:54:25;-2.00;99.90
23597;DHT22;40226;50.874;4.394;2022-12-18T08:56:50;-2.10;99.90
23597;DHT22;40226;50.874;4.394;2022-12-18T08:59:17;-2.00;99.90
23597;DHT22;40226;50.874;4.394;2022-12-18T09:01:43;-1.90;99.90
23597;DHT22;40226;50.874;4.394;2022-12-18T09:04:09;-1.90;99.90
23597;DHT22;40226;50.874;4.394;2022-12-18T09:06:35;-1.80;99.90
23597;DHT22;40226;50.874;4.394;2022-12-18T09:09:01;-1.50;99.90
23597;DHT22;40226;50.874;4.394;2022-12-18T09:11:27;-1.40;99.90
23597;DHT22;40226;50.874;4.394;2022-12-18T09:13:54;-1.30;99.90
23597;DHT22;40226;50.874;4.394;2022-12-18T09:16:21;-1.10;99.90
23597;DHT22;40226;50.874;4.394;2022-12-18T09:18:47;-1.30;99.90
23597;DHT22;40226;50.874;4.394;2022-12-18T09:21:15;-1.20;99.90
23597;DHT22;40226;50.874;4.394;2022-12-18T09:23:41;-0.80;99.90
23597;DHT22;40226;50.874;4.394;2022-12-18T09:26:07;-0.80;99.90
23597;DHT22;40226;50.874;4.394;2022-12-18T09:28:33;-0.40;99.90
23597;DHT22;40226;50.874;4.394;2022-12-18T09:30:58;-0.40;99.90
23597;DHT22;40226;50.874;4.394;2022-12-18T09:33:28;-0.20;99.90
23597;DHT22;40226;50.874;4.394;2022-12-18T09:35:53;0.10;99.90
23597;DHT22;40226;50.874;4.394;2022-12-18T09:38:19;0.10;99.90
23597;DHT22;40226;50.874;4.394;2022-12-18T09:40:47;0.20;99.90
23597;DHT22;40226;50.874;4.394;2022-12-18T09:43:21;0.30;99.90
23597;DHT22;40226;50.874;4.394;2022-12-18T09:45:53;0.30;99.90
23597;DHT22;40226;50.874;4.394;2022-12-18T09:48:31;0.50;99.90
23597;DHT22;40226;50.874;4.394;2022-12-18T09:51:01;0.80;99.90
23597;DHT22;40226;50.874;4.394;2022-12-18T09:53:31;1.00;99.90
23597;DHT22;40226;50.874;4.394;2022-12-18T09:56:00;1.10;99.90
23597;DHT22;40226;50.874;4.394;2022-12-18T09:58:41;1.00;99.90
23597;DHT22;40226;50.874;4.394;2022-12-18T10:01:18;1.00;99.90
23597;DHT22;40226;50.874;4.394;2022-12-18T10:03:48;1.10;99.90
23597;DHT22;40226;50.874;4.394;2022-12-18T10:06:23;1.00;99.90
23597;DHT22;40226;50.874;4.394;2022-12-18T10:09:00;1.00;99.90
23597;DHT22;40226;50.874;4.394;2022-12-18T10:11:39;1.20;99.90
23597;DHT22;40226;50.874;4.394;2022-12-18T10:17:02;1.30;99.90
23597;DHT22;40226;50.874;4.394;2022-12-18T10:19:43;1.30;99.90
23597;DHT22;40226;50.874;4.394;2022-12-18T10:25:22;1.40;99.90
23597;DHT22;40226;50.874;4.394;2022-12-18T10:27:51;1.50;99.90
23597;DHT22;40226;50.874;4.394;2022-12-18T10:30:20;1.50;99.90
23597;DHT22;40226;50.874;4.394;2022-12-18T10:32:46;1.40;99.90
23597;DHT22;40226;50.874;4.394;2022-12-18T10:35:25;1.60;99.90
23597;DHT22;40226;50.874;4.394;2022-12-18T10:38:20;1.80;99.90
23597;DHT22;40226;50.874;4.394;2022-12-18T10:41:05;1.80;99.90
23597;DHT22;40226;50.874;4.394;2022-12-18T10:43:36;1.90;99.90
23597;DHT22;40226;50.874;4.394;2022-12-18T10:46:11;2.10;99.90
23597;DHT22;40226;50.874;4.394;2022-12-18T10:48:48;2.00;99.90
23597;DHT22;40226;50.874;4.394;2022-12-18T10:51:30;2.10;99.90
23597;DHT22;40226;50.874;4.394;2022-12-18T10:53:57;2.20;99.90
23597;DHT22;40226;50.874;4.394;2022-12-18T10:56:26;2.10;99.90
23597;DHT22;40226;50.874;4.394;2022-12-18T10:59:22;1.80;99.90
23597;DHT22;40226;50.874;4.394;2022-12-18T11:01:54;1.80;99.90
23597;DHT22;40226;50.874;4.394;2022-12-18T11:04:24;1.90;99.90
23597;DHT22;40226;50.874;4.394;2022-12-18T11:06:59;2.10;99.90
23597;DHT22;40226;50.874;4.394;2022-12-18T11:09:36;2.10;99.90
23597;DHT22;40226;50.874;4.394;2022-12-18T11:12:06;2.00;99.90
23597;DHT22;40226;50.874;4.394;2022-12-18T11:14:48;2.30;99.90
23597;DHT22;40226;50.874;4.394;2022-12-18T11:17:32;2.30;99.90
23597;DHT22;40226;50.874;4.394;2022-12-18T11:20:27;2.40;99.90
23597;DHT22;40226;50.874;4.394;2022-12-18T11:23:01;2.50;99.90
23597;DHT22;40226;50.874;4.394;2022-12-18T11:25:28;2.40;99.90
23597;DHT22;40226;50.874;4.394;2022-12-18T11:28:00;2.40;99.90
23597;DHT22;40226;50.874;4.394;2022-12-18T11:30:28;2.40;99.90
23597;DHT22;40226;50.874;4.394;2022-12-18T11:33:10;2.20;99.90
23597;DHT22;40226;50.874;4.394;2022-12-18T11:35:49;2.50;99.90
23597;DHT22;40226;50.874;4.394;2022-12-18T11:40:49;2.10;99.90
23597;DHT22;40226;50.874;4.394;2022-12-18T11:43:34;2.40;99.90
23597;DHT22;40226;50.874;4.394;2022-12-18T11:49:03;2.60;99.90
23597;DHT22;40226;50.874;4.394;2022-12-18T11:51:43;2.40;99.90
23597;DHT22;40226;50.874;4.394;2022-12-18T11:54:13;2.20;99.90
23597;DHT22;40226;50.874;4.394;2022-12-18T11:56:47;2.40;99.90
23597;DHT22;40226;50.874;4.394;2022-12-18T12:03:07;2.20;99.90
23597;DHT22;40226;50.874;4.394;2022-12-18T12:05:24;2.00;99.90
23597;DHT22;40226;50.874;4.394;2022-12-18T12:19:04;2.20;99.90
23597;DHT22;40226;50.874;4.394;2022-12-18T12:21:42;2.20;99.90
23597;DHT22;40226;50.874;4.394;2022-12-18T12:27:28;2.40;99.90
23597;DHT22;40226;50.874;4.394;2022-12-18T12:33:06;2.10;99.90
23597;DHT22;40226;50.874;4.394;2022-12-18T12:35:54;2.10;99.90
23597;DHT22;40226;50.874;4.394;2022-12-18T12:38:27;2.00;99.90
23597;DHT22;40226;50.874;4.394;2022-12-18T12:41:02;1.90;99.90
23597;DHT22;40226;50.874;4.394;2022-12-18T12:43:42;1.80;99.90
23597;DHT22;40226;50.874;4.394;2022-12-18T12:46:14;1.90;99.90
23597;DHT22;40226;50.874;4.394;2022-12-18T12:49:14;2.00;99.90
23597;DHT22;40226;50.874;4.394;2022-12-18T12:51:43;2.20;99.90
23597;DHT22;40226;50.874;4.394;2022-12-18T12:54:17;2.10;99.90
23597;DHT22;40226;50.874;4.394;2022-12-18T12:56:55;2.20;99.90
23597;DHT22;40226;50.874;4.394;2022-12-18T12:59:56;2.30;99.90
23597;DHT22;40226;50.874;4.394;2022-12-18T13:05:25;2.30;99.90
23597;DHT22;40226;50.874;4.394;2022-12-18T13:08:02;2.00;99.90
23597;DHT22;40226;50.874;4.394;2022-12-18T13:10:37;1.90;99.90
23597;DHT22;40226;50.874;4.394;2022-12-18T13:15:47;1.90;99.90
23597;DHT22;40226;50.874;4.394;2022-12-18T13:18:21;2.00;99.90
23597;DHT22;40226;50.874;4.394;2022-12-18T13:21:01;2.10;99.90
23597;DHT22;40226;50.874;4.394;2022-12-18T13:23:33;2.10;99.90
23597;DHT22;40226;50.874;4.394;2022-12-18T13:34:24;2.30;99.90
23597;DHT22;40226;50.874;4.394;2022-12-18T13:36:52;2.40;99.90
23597;DHT22;40226;50.874;4.394;2022-12-18T13:41:45;2.30;99.90
23597;DHT22;40226;50.874;4.394;2022-12-18T13:44:32;2.30;99.90
23597;DHT22;40226;50.874;4.394;2022-12-18T13:47:00;2.30;99.90
23597;DHT22;40226;50.874;4.394;2022-12-18T13:49:39;2.10;99.90
23597;DHT22;40226;50.874;4.394;2022-12-18T13:52:26;2.00;99.90
23597;DHT22;40226;50.874;4.394;2022-12-18T13:54:55;1.80;99.90
23597;DHT22;40226;50.874;4.394;2022-12-18T13:57:31;1.80;99.90
23597;DHT22;40226;50.874;4.394;2022-12-18T13:59:59;1.90;99.90
23597;DHT22;40226;50.874;4.394;2022-12-18T14:02:44;1.80;99.90
23597;DHT22;40226;50.874;4.394;2022-12-18T14:07:47;1.70;99.90
23597;DHT22;40226;50.874;4.394;2022-12-18T14:10:15;1.60;99.90
23597;DHT22;40226;50.874;4.394;2022-12-18T14:12:45;1.60;99.90
23597;DHT22;40226;50.874;4.394;2022-12-18T14:20:31;1.60;99.90
23597;DHT22;40226;50.874;4.394;2022-12-18T14:22:58;1.70;99.90
23597;DHT22;40226;50.874;4.394;2022-12-18T14:25:28;1.70;99.90
23597;DHT22;40226;50.874;4.394;2022-12-18T14:28:13;1.70;99.90
23597;DHT22;40226;50.874;4.394;2022-12-18T14:30:41;1.60;99.90
23597;DHT22;40226;50.874;4.394;2022-12-18T14:33:20;1.70;99.90
23597;DHT22;40226;50.874;4.394;2022-12-18T14:36:04;1.80;99.90
23597;DHT22;40226;50.874;4.394;2022-12-18T14:38:37;1.80;99.90
23597;DHT22;40226;50.874;4.394;2022-12-18T14:41:06;1.80;99.90
23597;DHT22;40226;50.874;4.394;2022-12-18T14:43:36;1.80;99.90
23597;DHT22;40226;50.874;4.394;2022-12-18T14:48:48;1.50;99.90
23597;DHT22;40226;50.874;4.394;2022-12-18T14:51:22;1.60;99.90
23597;DHT22;40226;50.874;4.394;2022-12-18T14:53:55;1.70;99.90
23597;DHT22;40226;50.874;4.394;2022-12-18T14:56:22;1.80;99.90
23597;DHT22;40226;50.874;4.394;2022-12-18T14:59:00;1.80;99.90
23597;DHT22;40226;50.874;4.394;2022-12-18T15:01:37;1.70;99.90
23597;DHT22;40226;50.874;4.394;2022-12-18T15:04:04;1.80;99.90
23597;DHT22;40226;50.874;4.394;2022-12-18T15:06:31;1.90;99.90
23597;DHT22;40226;50.874;4.394;2022-12-18T15:08:59;2.10;99.90
23597;DHT22;40226;50.874;4.394;2022-12-18T15:12:00;2.00;99.90
23597;DHT22;40226;50.874;4.394;2022-12-18T15:14:41;1.90;99.90
23597;DHT22;40226;50.874;4.394;2022-12-18T15:17:18;1.80;99.90
23597;DHT22;40226;50.874;4.394;2022-12-18T15:19:46;1.90;99.90
23597;DHT22;40226;50.874;4.394;2022-12-18T15:24:50;2.10;99.90
23597;DHT22;40226;50.874;4.394;2022-12-18T15:27:27;2.20;99.90
23597;DHT22;40226;50.874;4.394;2022-12-18T15:30:24;2.20;99.90
23597;DHT22;40226;50.874;4.394;2022-12-18T15:32:51;2.00;99.90
23597;DHT22;40226;50.874;4.394;2022-12-18T15:35:20;2.20;99.90
23597;DHT22;40226;50.874;4.394;2022-12-18T15:37:46;2.20;99.90
23597;DHT22;40226;50.874;4.394;2022-12-18T15:40:18;2.20;99.90
23597;DHT22;40226;50.874;4.394;2022-12-18T15:42:44;2.10;99.90
23597;DHT22;40226;50.874;4.394;2022-12-18T15:45:29;2.00;99.90
23597;DHT22;40226;50.874;4.394;2022-12-18T15:47:55;2.00;99.90
23597;DHT22;40226;50.874;4.394;2022-12-18T15:50:21;2.00;99.90
23597;DHT22;40226;50.874;4.394;2022-12-18T15:52:49;2.20;99.90
23597;DHT22;40226;50.874;4.394;2022-12-18T15:55:21;2.20;99.90
23597;DHT22;40226;50.874;4.394;2022-12-18T15:58:07;2.30;99.90
23597;DHT22;40226;50.874;4.394;2022-12-18T16:00:38;2.20;99.90
23597;DHT22;40226;50.874;4.394;2022-12-18T16:03:04;2.10;99.90
23597;DHT22;40226;50.874;4.394;2022-12-18T16:05:31;1.90;99.90
23597;DHT22;40226;50.874;4.394;2022-12-18T16:07:57;2.10;99.90
23597;DHT22;40226;50.874;4.394;2022-12-18T16:10:22;2.20;99.90
23597;DHT22;40226;50.874;4.394;2022-12-18T16:12:49;2.10;99.90
23597;DHT22;40226;50.874;4.394;2022-12-18T16:15:15;2.10;99.90
23597;DHT22;40226;50.874;4.394;2022-12-18T16:17:42;1.90;99.90
23597;DHT22;40226;50.874;4.394;2022-12-18T16:20:16;1.90;99.90
23597;DHT22;40226;50.874;4.394;2022-12-18T16:22:43;2.00;99.90
23597;DHT22;40226;50.874;4.394;2022-12-18T16:25:20;1.90;99.90
23597;DHT22;40226;50.874;4.394;2022-12-18T16:27:46;2.00;99.90
23597;DHT22;40226;50.874;4.394;2022-12-18T16:30:13;2.10;99.90
23597;DHT22;40226;50.874;4.394;2022-12-18T16:32:39;2.50;99.90
23597;DHT22;40226;50.874;4.394;2022-12-18T16:35:05;2.30;99.90
23597;DHT22;40226;50.874;4.394;2022-12-18T16:37:30;2.10;99.90
23597;DHT22;40226;50.874;4.394;2022-12-18T16:39:56;2.00;99.90
23597;DHT22;40226;50.874;4.394;2022-12-18T16:42:22;2.00;99.90
23597;DHT22;40226;50.874;4.394;2022-12-18T16:44:48;2.00;99.90
23597;DHT22;40226;50.874;4.394;2022-12-18T16:47:14;2.00;99.90
23597;DHT22;40226;50.874;4.394;2022-12-18T16:49:40;2.00;99.90
23597;DHT22;40226;50.874;4.394;2022-12-18T16:52:06;2.10;99.90
23597;DHT22;40226;50.874;4.394;2022-12-18T16:54:32;2.10;99.90
23597;DHT22;40226;50.874;4.394;2022-12-18T16:56:59;2.20;99.90
23597;DHT22;40226;50.874;4.394;2022-12-18T16:59:26;2.10;99.90
23597;DHT22;40226;50.874;4.394;2022-12-18T17:01:52;2.10;99.90
23597;DHT22;40226;50.874;4.394;2022-12-18T17:04:17;2.20;99.90
23597;DHT22;40226;50.874;4.394;2022-12-18T17:06:44;2.10;99.90
23597;DHT22;40226;50.874;4.394;2022-12-18T17:09:13;2.10;99.90
23597;DHT22;40226;50.874;4.394;2022-12-18T17:11:40;2.20;99.90
23597;DHT22;40226;50.874;4.394;2022-12-18T17:14:07;2.30;99.90
23597;DHT22;40226;50.874;4.394;2022-12-18T17:16:33;2.20;99.90
23597;DHT22;40226;50.874;4.394;2022-12-18T17:19:00;2.20;99.90
23597;DHT22;40226;50.874;4.394;2022-12-18T17:21:28;2.20;99.90
23597;DHT22;40226;50.874;4.394;2022-12-18T17:23:53;2.20;99.90
23597;DHT22;40226;50.874;4.394;2022-12-18T17:26:19;2.30;99.90
23597;DHT22;40226;50.874;4.394;2022-12-18T17:28:45;2.40;99.90
23597;DHT22;40226;50.874;4.394;2022-12-18T17:31:12;2.30;99.90
23597;DHT22;40226;50.874;4.394;2022-12-18T17:33:38;2.20;99.90
23597;DHT22;40226;50.874;4.394;2022-12-18T17:36:04;2.20;99.90